Airfield :
LOGIN :

Register | Disclaimer

   EN    FR    IT 

 










Legend :    VFR   Marginal VFR   IFR   Intensive IFR   Very Intensive IFR
Visi :
Ceiling :
>= 8 km
>= 3000ft
5 to 8 km
1000 to 3000 ft
1500m to 5 km
500 to 1000 ft
800 to 1500m
200 to 500 ft
< 800m
< 200 ft
Symbols :   Thunderstorms  Fog  Heavy snow  Heavy precipitations  Wind > 20 kt
SIGMETs :     Misc.  Thunderstorms  Icing  Turbulence  Mountain Waves  Volcanic Ashes






- Airport Elevation : 181 ft


ESIB - Satenas AB

CURRENT METAR :
  • 182320Z AUTO 22016KT 9999 BKN012/// OVC017/// 04/03 Q0999

EXPIRED METARs :
  • 182250Z AUTO 21016KT 9999 SCT014/// BKN018/// BKN041/// OVC049/// 04/03 Q0999
  • 182220Z AUTO 23016KT 9999 SCT016/// BKN020/// 04/03 Q0999
  • 182150Z AUTO 23017KT 9999 FEW021/// 04/03 Q0998
  • 182120Z AUTO 23019KT 9999 FEW021/// 05/03 Q0998
  • 182050Z AUTO 23017KT 9999 NCD 05/03 Q0999
  • 182020Z AUTO 24018KT 9999 FEW022/// 05/03 Q0998

Expired Forecast.



MET'MAP, your aeronautical weather chart ! - Copyright ORBIFLY December 2007 - Disclaimer

ORBIFLY MET'MAP TEAM :

Programming & Development : Alexandra Zaïnal
Concept & original design : Baudouin d'Aumeries
Assistance for programming : Marc-Olivier Méhu
Technical & hardware support : Manuel Goepfert

Contact : metmap@orbifly.com




SOURCES & CREDITS :

   NOAA